Time;durP1;ratioP1;P1;durP2;ratioP2;P2;SDS_P1;SDS_P2;PMS_P1;PMS_P2;Temp;Humidity;BMP_temperature;BMP_pressure;BME280_temperature;BME280_humidity;BME280_pressure;Samples;Min_cycle;Max_cycle;Signal;HPM_P1;HPM_P2
2022/12/30 00:00:15;;;;;;;8.27;2.37;;;;;;;4.75;100.00;100210.44;7396231;19;21532;-53
2022/12/30 00:02:48;;;;;;;10.87;3.03;;;;;;;4.78;100.00;100222.50;7394599;19;20429;-52
2022/12/30 00:05:17;;;;;;;8.53;2.30;;;;;;;4.79;100.00;100226.81;7397303;19;20762;-55
2022/12/30 00:07:47;;;;;;;5.60;2.03;;;;;;;4.79;100.00;100234.50;7392217;19;20507;-56
2022/12/30 00:10:16;;;;;;;9.83;3.03;;;;;;;4.82;100.00;100229.56;7394049;19;20383;-54
2022/12/30 00:34:32;;;;;;;8.57;2.33;;;;;;;4.95;100.00;100280.59;7396654;19;20443;-55
2022/12/30 00:37:02;;;;;;;5.17;1.80;;;;;;;4.97;100.00;100285.81;7393510;19;20414;-54
2022/12/30 00:39:31;;;;;;;5.47;1.80;;;;;;;4.99;100.00;100287.63;7395757;19;20402;-55
2022/12/30 00:44:43;;;;;;;21.53;3.63;;;;;;;4.96;100.00;100290.03;7396166;19;20391;-53
2022/12/30 00:47:13;;;;;;;4.77;1.93;;;;;;;4.95;100.00;100293.38;7393141;19;21051;-56
2022/12/30 00:57:51;;;;;;;17.83;2.80;;;;;;;4.91;100.00;100288.00;7391371;19;20443;-54
2022/12/30 01:00:21;;;;;;;11.57;2.70;;;;;;;4.87;100.00;100292.03;7394102;19;20407;-55
2022/12/30 01:02:50;;;;;;;18.50;3.40;;;;;;;4.86;100.00;100292.84;7392639;19;20439;-54
2022/12/30 01:05:23;;;;;;;9.10;2.83;;;;;;;4.85;100.00;100291.06;7399292;19;20411;-50
2022/12/30 01:07:53;;;;;;;17.03;3.57;;;;;;;4.83;100.00;100300.34;7391251;19;20431;-53
2022/12/30 01:10:22;;;;;;;13.73;2.97;;;;;;;4.81;100.00;100294.22;7397986;19;20991;-56
2022/12/30 01:12:52;;;;;;;6.47;2.53;;;;;;;4.82;100.00;100293.47;7391711;19;20965;-55
2022/12/30 01:15:21;;;;;;;8.17;2.03;;;;;;;4.83;100.00;100300.34;7392411;19;20921;-58
2022/12/30 01:17:51;;;;;;;16.47;3.47;;;;;;;4.79;100.00;100298.38;7392260;19;20968;-55
2022/12/30 01:20:23;;;;;;;5.10;1.50;;;;;;;4.80;100.00;100302.69;7393886;19;20407;-56
2022/12/30 01:22:53;;;;;;;10.70;2.90;;;;;;;4.80;100.00;100302.69;7393684;19;20771;-57
2022/12/30 01:25:22;;;;;;;7.30;3.20;;;;;;;4.77;100.00;100305.97;7394893;19;20388;-54
2022/12/30 01:27:52;;;;;;;4.53;2.00;;;;;;;4.76;100.00;100303.34;7391332;19;20949;-56
2022/12/30 01:30:22;;;;;;;13.43;2.30;;;;;;;4.76;100.00;100311.00;7393547;19;20407;-58
2022/12/30 01:32:51;;;;;;;13.80;3.77;;;;;;;4.71;100.00;100326.94;7391321;19;20463;-52
2022/12/30 01:35:23;;;;;;;14.90;3.30;;;;;;;4.73;100.00;100327.91;7394273;19;20396;-53
2022/12/30 01:37:53;;;;;;;7.20;2.73;;;;;;;4.69;100.00;100328.53;7391522;19;20399;-56
2022/12/30 01:40:22;;;;;;;8.50;2.27;;;;;;;4.73;100.00;100325.34;7393344;19;20392;-53
2022/12/30 01:42:52;;;;;;;14.90;3.33;;;;;;;4.70;100.00;100335.41;7391473;19;20427;-54
2022/12/30 01:45:23;;;;;;;11.67;3.77;;;;;;;4.71;100.00;100326.06;7393800;19;20388;-54
2022/12/30 01:47:56;;;;;;;5.77;2.83;;;;;;;4.66;100.00;100333.47;7391623;19;20956;-55
2022/12/30 01:50:34;;;;;;;14.83;3.97;;;;;;;4.65;100.00;100329.16;7392930;19;20383;-52
2022/12/30 01:53:06;;;;;;;9.40;2.73;;;;;;;4.64;100.00;100327.38;7389887;19;20435;-58
2022/12/30 01:55:39;;;;;;;19.13;3.60;;;;;;;4.61;100.00;100323.78;7393513;19;20423;-51
2022/12/30 01:58:13;;;;;;;13.30;3.03;;;;;;;4.59;100.00;100323.66;7390621;19;20420;-56
2022/12/30 02:00:42;;;;;;;11.70;3.23;;;;;;;4.58;100.00;100334.69;7391803;19;20411;-56
2022/12/30 02:03:12;;;;;;;11.73;3.40;;;;;;;4.61;100.00;100329.75;7390499;19;20419;-52
2022/12/30 02:05:45;;;;;;;15.23;4.10;;;;;;;4.58;100.00;100327.88;7393450;19;20387;-53
2022/12/30 02:08:16;;;;;;;19.03;2.37;;;;;;;4.58;100.00;100330.44;7390934;19;20418;-51
2022/12/30 02:10:48;;;;;;;11.27;3.33;;;;;;;4.55;100.00;100332.81;7388385;19;20799;-54
2022/12/30 02:13:20;;;;;;;12.20;2.83;;;;;;;4.55;100.00;100329.38;7390396;19;21004;-58
2022/12/30 02:16:00;;;;;;;11.23;3.47;;;;;;;4.55;100.00;100339.59;7392853;19;20399;-58
2022/12/30 02:18:40;;;;;;;10.70;2.90;;;;;;;4.50;100.00;100335.91;7390641;19;20407;-59
2022/12/30 02:21:42;;;;;;;14.13;2.23;;;;;;;4.58;100.00;100339.78;7392315;19;20434;-56
2022/12/30 02:24:41;;;;;;;10.93;3.10;;;;;;;4.56;100.00;100344.81;7396198;19;20457;-57
2022/12/30 02:27:19;;;;;;;18.73;3.50;;;;;;;4.56;100.00;100332.03;7390368;19;20451;-55
2022/12/30 02:30:04;;;;;;;11.70;3.47;;;;;;;4.50;100.00;100356.34;7391588;19;20396;-54
2022/12/30 02:32:43;;;;;;;10.20;3.00;;;;;;;4.55;100.00;100334.50;7389754;19;20437;-54
2022/12/30 02:35:20;;;;;;;8.93;2.43;;;;;;;4.50;100.00;100356.34;7393709;19;20427;-57
2022/12/30 02:37:56;;;;;;;12.13;2.93;;;;;;;4.52;100.00;100353.06;7389928;19;20762;-55
2022/12/30 02:44:36;;;;;;;14.77;2.87;;;;;;;4.56;100.00;100357.59;7391696;19;20395;-58
2022/12/30 02:46:08;;;;;;;9.80;3.00;;;;;;;4.59;100.00;100362.00;7390497;19;20388;-58
2022/12/30 02:48:42;;;;;;;21.73;2.80;;;;;;;4.59;100.00;100362.00;7387848;19;20756;-57
2022/12/30 02:53:54;;;;;;;20.10;3.70;;;;;;;4.57;100.00;100372.13;7386242;19;20994;-52
2022/12/30 02:56:23;;;;;;;8.93;2.00;;;;;;;4.64;100.00;100382.72;7391365;19;20390;-53
2022/12/30 03:03:57;;;;;;;6.40;2.13;;;;;;;4.64;100.00;100382.72;7387019;19;20422;-54
2022/12/30 03:04:45;;;;;;;14.47;3.27;;;;;;;4.72;100.00;100404.53;7390837;19;20404;-56
2022/12/30 03:07:25;;;;;;;16.73;4.97;;;;;;;4.72;100.00;100401.97;7388484;19;20410;-54
2022/12/30 03:12:53;;;;;;;13.53;2.50;;;;;;;4.76;100.00;100395.34;7387803;19;20439;-57
2022/12/30 03:15:27;;;;;;;12.17;3.43;;;;;;;4.77;100.00;100404.78;7389423;19;20435;-54
2022/12/30 03:17:57;;;;;;;17.17;3.87;;;;;;;4.77;100.00;100412.44;7389925;19;20456;-56
2022/12/30 03:20:30;;;;;;;20.10;4.27;;;;;;;4.81;100.00;100414.38;7391748;19;20395;-54
2022/12/30 03:28:30;;;;;;;12.53;2.80;;;;;;;4.75;100.00;100429.34;7392456;19;20449;-53
2022/12/30 03:31:02;;;;;;;22.80;3.70;;;;;;;4.79;100.00;100431.31;7392986;19;20999;-55
2022/12/30 03:33:33;;;;;;;10.67;3.00;;;;;;;4.79;100.00;100426.19;7391483;19;20524;-58
2022/12/30 03:36:10;;;;;;;16.93;4.33;;;;;;;4.77;100.00;100432.91;7393924;19;20400;-57
2022/12/30 03:38:41;;;;;;;12.57;3.40;;;;;;;4.81;100.00;100432.28;7391906;19;20423;-53
2022/12/30 03:41:12;;;;;;;11.33;3.00;;;;;;;4.82;100.00;100436.63;7392863;19;20447;-54
2022/12/30 03:43:43;;;;;;;21.90;3.10;;;;;;;4.83;100.00;100443.50;7391280;19;20467;-54
2022/12/30 03:46:15;;;;;;;23.30;3.10;;;;;;;4.83;100.00;100449.47;7393821;19;20388;-54
2022/12/30 03:48:44;;;;;;;13.20;3.20;;;;;;;4.85;100.00;100452.13;7391510;19;20515;-53
2022/12/30 03:51:16;;;;;;;16.40;3.80;;;;;;;4.91;100.00;100462.72;7392457;19;20423;-55
2022/12/30 03:53:46;;;;;;;15.20;2.10;;;;;;;4.91;100.00;100460.16;7391468;19;20451;-56
2022/12/30 03:56:15;;;;;;;14.63;2.80;;;;;;;4.96;100.00;100463.88;7394072;19;20400;-53
2022/12/30 03:58:45;;;;;;;8.63;2.70;;;;;;;4.97;100.00;100468.22;7387073;19;20419;-51
2022/12/30 04:01:14;;;;;;;14.30;3.70;;;;;;;5.04;100.00;100474.59;7388529;19;20423;-53
2022/12/30 04:03:44;;;;;;;18.77;3.67;;;;;;;5.05;100.00;100491.69;7387214;19;21023;-56
2022/12/30 04:06:16;;;;;;;14.37;1.80;;;;;;;5.08;100.00;100491.00;7389728;19;20388;-51
2022/12/30 04:08:46;;;;;;;15.83;2.90;;;;;;;5.10;100.00;100500.53;7386882;19;20426;-54
2022/12/30 04:11:15;;;;;;;13.87;2.50;;;;;;;5.11;100.00;100497.16;7388958;19;20450;-51
2022/12/30 04:13:45;;;;;;;6.00;1.97;;;;;;;5.13;100.00;100513.47;7386611;19;20450;-53
2022/12/30 04:16:14;;;;;;;8.53;1.73;;;;;;;5.35;100.00;100516.44;7389150;19;20376;-51
2022/12/30 04:18:43;;;;;;;4.73;1.33;;;;;;;5.51;100.00;100523.34;7387589;19;20490;-50
2022/12/30 04:21:13;;;;;;;17.80;3.10;;;;;;;5.57;100.00;100527.91;7388268;19;20779;-53
2022/12/30 04:23:45;;;;;;;14.47;2.80;;;;;;;5.60;100.00;100530.69;7386810;19;20427;-53
2022/12/30 04:26:14;;;;;;;13.17;3.63;;;;;;;5.58;100.00;100542.50;7389502;19;20918;-51
2022/12/30 04:28:44;;;;;;;16.53;3.47;;;;;;;5.58;100.00;100556.16;7386331;19;20411;-51
2022/12/30 04:31:13;;;;;;;12.03;2.80;;;;;;;5.64;100.00;100559.09;7387842;19;20420;-55
2022/12/30 04:33:43;;;;;;;11.80;2.43;;;;;;;5.66;100.00;100569.44;7386280;19;20415;-54
2022/12/30 04:36:12;;;;;;;10.40;2.00;;;;;;;5.65;100.00;100567.66;7387003;19;20419;-51
2022/12/30 04:38:44;;;;;;;9.37;1.80;;;;;;;5.68;100.00;100575.50;7393881;19;20419;-54
2022/12/30 04:41:17;;;;;;;12.90;2.70;;;;;;;5.66;100.00;100579.66;7394896;19;20409;-50
2022/12/30 04:43:47;;;;;;;4.63;2.03;;;;;;;5.67;100.00;100584.88;7396314;19;20460;-53
2022/12/30 04:46:16;;;;;;;22.53;3.27;;;;;;;5.68;100.00;100593.44;7396061;19;20372;-55
2022/12/30 04:48:46;;;;;;;8.43;1.67;;;;;;;5.66;100.00;100600.16;7393199;19;20487;-54
2022/12/30 04:51:24;;;;;;;14.83;2.30;;;;;;;5.69;100.00;100600.31;7394895;19;20458;-54
2022/12/30 04:53:56;;;;;;;9.70;2.20;;;;;;;5.70;100.00;100602.09;7393346;19;20420;-53
2022/12/30 04:56:25;;;;;;;10.97;2.03;;;;;;;5.70;100.00;100607.22;7393516;19;20396;-51
2022/12/30 04:58:55;;;;;;;6.07;1.33;;;;;;;5.69;100.00;100615.66;7394900;19;20842;-52
2022/12/30 05:01:24;;;;;;;18.77;2.40;;;;;;;5.76;100.00;100612.72;7393831;19;20800;-50
2022/12/30 05:03:54;;;;;;;9.73;2.10;;;;;;;5.73;100.00;100609.06;7393009;19;20415;-54
2022/12/30 05:06:23;;;;;;;14.10;2.50;;;;;;;5.68;100.00;100613.91;7395293;19;20395;-52
2022/12/30 05:08:55;;;;;;;5.80;1.40;;;;;;;5.70;100.00;100612.34;7391974;19;20426;-52
2022/12/30 05:11:25;;;;;;;21.10;2.13;;;;;;;5.68;100.00;100613.91;7394425;19;20408;-51
2022/12/30 05:13:54;;;;;;;13.07;2.80;;;;;;;5.65;100.00;100624.84;7392393;19;20462;-54
2022/12/30 05:16:24;;;;;;;8.77;1.87;;;;;;;5.65;100.00;100621.44;7392720;19;20388;-55
2022/12/30 05:18:53;;;;;;;13.40;3.73;;;;;;;5.61;100.00;100622.03;7392014;19;20428;-55
2022/12/30 05:21:22;;;;;;;13.27;1.67;;;;;;;5.60;100.00;100630.50;7396154;19;20458;-56
2022/12/30 05:26:36;;;;;;;10.13;2.43;;;;;;;5.49;100.00;100625.59;7394938;19;20376;-54
2022/12/30 05:29:06;;;;;;;17.50;2.83;;;;;;;5.47;100.00;100628.88;7392839;19;20426;-56
2022/12/30 05:31:35;;;;;;;8.97;2.80;;;;;;;5.41;100.00;100619.16;7393522;19;20426;-57
2022/12/30 05:34:05;;;;;;;11.27;3.10;;;;;;;5.40;100.00;100622.50;7393433;19;20409;-55
2022/12/30 05:36:37;;;;;;;12.97;2.50;;;;;;;5.30;100.00;100621.06;7392641;19;20395;-53
2022/12/30 05:39:07;;;;;;;6.70;2.17;;;;;;;5.25;100.00;100623.34;7392935;19;20411;-57
2022/12/30 05:41:40;;;;;;;17.70;2.20;;;;;;;5.18;100.00;100618.63;7393703;19;20645;-57
2022/12/30 05:44:09;;;;;;;6.70;2.40;;;;;;;5.16;100.00;100619.31;7393607;19;20967;-54
2022/12/30 05:46:39;;;;;;;21.77;2.87;;;;;;;5.15;100.00;100623.56;7391729;19;20411;-55
2022/12/30 05:49:08;;;;;;;8.10;2.00;;;;;;;5.05;100.00;100614.44;7391913;19;20403;-57
2022/12/30 05:51:38;;;;;;;14.43;3.50;;;;;;;5.02;100.00;100614.25;7391895;19;20827;-56
2022/12/30 05:54:07;;;;;;;20.23;3.20;;;;;;;5.06;100.00;100615.31;7393124;19;20736;-54
2022/12/30 05:56:39;;;;;;;10.07;3.20;;;;;;;5.01;100.00;100617.59;7392083;19;20937;-56
2022/12/30 05:59:10;;;;;;;17.27;3.87;;;;;;;4.99;100.00;100627.72;7392420;19;20435;-54
2022/12/30 06:01:40;;;;;;;12.83;3.57;;;;;;;5.02;100.00;100631.28;7389213;19;20551;-52
2022/12/30 06:04:09;;;;;;;12.30;3.20;;;;;;;5.03;100.00;100621.13;7392979;19;20372;-56
2022/12/30 06:06:39;;;;;;;12.57;2.73;;;;;;;5.03;100.00;100626.22;7391140;19;20726;-56
2022/12/30 06:09:08;;;;;;;20.93;4.37;;;;;;;5.06;100.00;100625.53;7392048;19;20426;-54
2022/12/30 06:11:40;;;;;;;18.23;4.43;;;;;;;5.08;100.00;100623.97;7390090;19;21215;-56
2022/12/30 06:14:12;;;;;;;12.37;3.30;;;;;;;5.13;100.00;100622.59;7392728;19;20384;-51
2022/12/30 06:16:41;;;;;;;10.50;3.20;;;;;;;5.16;100.00;100627.00;7389191;19;20429;-54
2022/12/30 06:19:11;;;;;;;19.30;4.00;;;;;;;5.15;100.00;100623.56;7391890;19;20411;-54
2022/12/30 06:21:40;;;;;;;28.40;5.17;;;;;;;5.16;100.00;100621.88;7389827;19;20442;-56
2022/12/30 06:24:10;;;;;;;22.53;3.53;;;;;;;5.15;100.00;100628.69;7392408;19;20380;-51
2022/12/30 06:26:42;;;;;;;11.57;4.03;;;;;;;5.13;100.00;100628.59;7390363;19;20415;-51
2022/12/30 06:29:11;;;;;;;12.90;4.37;;;;;;;5.16;100.00;100629.56;7391498;19;20933;-56
2022/12/30 06:31:41;;;;;;;18.43;4.57;;;;;;;5.18;100.00;100635.66;7389554;19;20500;-50
2022/12/30 06:34:10;;;;;;;6.13;2.77;;;;;;;5.10;100.00;100624.94;7391757;19;20383;-58
2022/12/30 06:36:39;;;;;;;23.27;4.33;;;;;;;5.13;100.00;100637.94;7390277;19;20395;-58
2022/12/30 06:39:09;;;;;;;21.03;4.83;;;;;;;5.09;100.00;100635.97;7391051;19;20391;-52
2022/12/30 06:41:38;;;;;;;19.40;4.67;;;;;;;4.98;100.00;100638.75;7389104;19;20407;-53
2022/12/30 06:44:11;;;;;;;15.20;3.90;;;;;;;4.88;100.00;100640.63;7391866;19;20837;-54
2022/12/30 06:46:40;;;;;;;19.73;4.50;;;;;;;4.83;100.00;100641.22;7389989;19;20391;-57
2022/12/30 06:49:10;;;;;;;21.53;4.17;;;;;;;4.78;100.00;100631.50;7392975;19;20397;-54
2022/12/30 06:51:40;;;;;;;12.30;3.30;;;;;;;4.67;100.00;100625.72;7388497;19;20419;-55
2022/12/30 06:54:09;;;;;;;18.87;4.70;;;;;;;4.61;100.00;100620.22;7395505;19;20410;-52
2022/12/30 06:56:38;;;;;;;6.77;2.77;;;;;;;4.58;100.00;100620.91;7388301;19;20394;-54
2022/12/30 06:59:10;;;;;;;24.70;5.00;;;;;;;4.51;100.00;100618.75;7388958;19;20395;-53
2022/12/30 07:01:40;;;;;;;14.97;4.30;;;;;;;4.46;100.00;100624.44;7387608;19;20434;-55
2022/12/30 07:04:10;;;;;;;14.27;4.63;;;;;;;4.37;100.00;100616.19;7390802;19;21005;-54
2022/12/30 07:06:39;;;;;;;13.47;3.33;;;;;;;4.33;100.00;100614.22;7388878;19;20387;-55
2022/12/30 07:09:09;;;;;;;24.17;3.70;;;;;;;4.27;100.00;100624.94;7390566;19;20506;-52
2022/12/30 07:11:39;;;;;;;14.90;4.80;;;;;;;4.19;100.00;100614.19;7387671;19;20486;-54
2022/12/30 07:14:11;;;;;;;15.10;4.23;;;;;;;4.16;100.00;100628.44;7392704;19;20395;-52
2022/12/30 07:16:41;;;;;;;15.57;4.80;;;;;;;4.18;100.00;100620.09;7387998;19;20391;-52
2022/12/30 07:19:11;;;;;;;22.43;5.27;;;;;;;4.11;100.00;100625.56;7389933;19;21258;-57
2022/12/30 07:21:40;;;;;;;13.90;4.70;;;;;;;4.15;100.00;100621.56;7387768;19;20423;-50
2022/12/30 07:24:10;;;;;;;12.00;4.00;;;;;;;4.00;100.00;100618.88;7390644;19;20405;-55
2022/12/30 07:26:40;;;;;;;25.10;5.27;;;;;;;4.03;100.00;100606.31;7388578;19;20384;-53
2022/12/30 07:29:12;;;;;;;20.53;5.43;;;;;;;3.95;100.00;100607.47;7389636;19;20398;-50
2022/12/30 07:31:42;;;;;;;10.70;3.90;;;;;;;3.87;100.00;100600.19;7387478;19;20435;-52
2022/12/30 07:34:12;;;;;;;13.27;4.03;;;;;;;3.82;100.00;100606.66;7390274;19;20404;-51
2022/12/30 07:36:41;;;;;;;21.00;6.63;;;;;;;3.80;100.00;100599.69;7387510;19;20395;-57
2022/12/30 07:39:11;;;;;;;15.00;4.70;;;;;;;3.74;100.00;100602.72;7389339;19;20781;-53
2022/12/30 07:41:40;;;;;;;13.83;4.23;;;;;;;3.71;100.00;100597.41;7387363;19;20768;-55
2022/12/30 07:44:12;;;;;;;19.20;5.10;;;;;;;3.68;100.00;100590.41;7390038;19;20399;-49
2022/12/30 07:46:42;;;;;;;12.80;4.63;;;;;;;3.65;100.00;100580.88;7388069;19;20403;-54
2022/12/30 07:49:11;;;;;;;15.10;3.93;;;;;;;3.64;100.00;100574.03;7389318;19;20459;-57
2022/12/30 07:51:41;;;;;;;16.87;4.93;;;;;;;3.62;100.00;100575.59;7386282;19;20412;-50
2022/12/30 07:54:11;;;;;;;15.47;4.07;;;;;;;3.58;100.00;100568.50;7389663;19;20419;-55
2022/12/30 07:56:40;;;;;;;16.77;4.37;;;;;;;3.61;100.00;100561.06;7386934;19;20772;-51
2022/12/30 07:59:12;;;;;;;17.47;4.60;;;;;;;3.56;100.00;100559.88;7388814;19;20382;-54
2022/12/30 08:01:42;;;;;;;16.97;3.60;;;;;;;3.54;100.00;100555.44;7386266;19;20427;-52
2022/12/30 08:04:12;;;;;;;14.30;4.63;;;;;;;3.57;100.00;100545.44;7389612;19;20932;-52
2022/12/30 08:07:01;;;;;;;16.63;4.23;;;;;;;3.61;100.00;100542.31;7386684;19;20403;-49
2022/12/30 08:09:31;;;;;;;18.90;6.13;;;;;;;3.63;100.00;100535.63;7389054;19;20767;-50
2022/12/30 08:12:00;;;;;;;21.63;6.53;;;;;;;3.61;100.00;100543.22;7390774;19;20415;-54
2022/12/30 08:14:32;;;;;;;12.20;3.97;;;;;;;3.61;100.00;100537.22;7397220;19;20416;-52
2022/12/30 08:17:02;;;;;;;14.83;4.27;;;;;;;3.64;100.00;100535.75;7393086;19;20422;-52
2022/12/30 08:19:31;;;;;;;16.03;3.40;;;;;;;3.65;100.00;100540.06;7395371;19;20434;-54
2022/12/30 08:22:01;;;;;;;22.97;4.70;;;;;;;3.69;100.00;100536.03;7394431;19;20422;-53
2022/12/30 08:24:30;;;;;;;14.70;4.37;;;;;;;3.67;100.00;100534.16;7401045;19;20391;-49
2022/12/30 08:27:00;;;;;;;13.93;4.30;;;;;;;3.72;100.00;100532.81;7394035;19;20387;-56
2022/12/30 08:29:32;;;;;;;24.60;4.70;;;;;;;3.77;100.00;100526.34;7396000;19;20754;-52
2022/12/30 08:32:02;;;;;;;28.00;4.23;;;;;;;3.75;100.00;100535.59;7392583;19;20403;-55
2022/12/30 08:34:31;;;;;;;11.03;3.03;;;;;;;3.73;100.00;100519.25;7398290;19;20398;-54
2022/12/30 08:37:00;;;;;;;12.03;4.90;;;;;;;3.77;100.00;100509.38;7396187;19;20753;-55
2022/12/30 08:39:30;;;;;;;17.23;4.43;;;;;;;3.78;100.00;100510.25;7395805;19;20395;-56
2022/12/30 08:41:59;;;;;;;21.10;4.40;;;;;;;3.78;100.00;100515.34;7392234;19;20745;-55
2022/12/30 08:44:32;;;;;;;15.60;4.20;;;;;;;3.81;100.00;100510.47;7396407;19;20980;-55
2022/12/30 08:47:01;;;;;;;19.23;4.97;;;;;;;3.83;100.00;100508.88;7391151;19;20419;-49
2022/12/30 08:49:31;;;;;;;15.63;3.80;;;;;;;3.87;100.00;100508.31;7395555;19;20379;-51
2022/12/30 08:52:00;;;;;;;16.60;3.57;;;;;;;3.92;100.00;100514.59;7392104;19;20418;-56
2022/12/30 08:54:30;;;;;;;10.00;3.20;;;;;;;3.94;100.00;100526.56;7400148;19;20745;-57
2022/12/30 08:56:59;;;;;;;11.03;3.70;;;;;;;3.99;100.00;100540.53;7395675;19;20406;-53
2022/12/30 08:59:31;;;;;;;12.90;3.73;;;;;;;3.99;100.00;100545.63;7394846;19;20443;-53
2022/12/30 09:02:01;;;;;;;11.87;2.90;;;;;;;3.98;100.00;100544.75;7391005;19;20987;-54
2022/12/30 09:04:31;;;;;;;8.83;3.80;;;;;;;4.03;100.00;100542.47;7395550;19;20941;-52
2022/12/30 09:07:01;;;;;;;12.33;2.80;;;;;;;4.06;100.00;100550.34;7391989;19;20418;-49
2022/12/30 09:09:30;;;;;;;22.80;3.70;;;;;;;4.16;100.00;100560.34;7394251;19;20391;-55
2022/12/30 09:12:00;;;;;;;13.67;4.30;;;;;;;4.12;100.00;100566.06;7392490;19;20636;-51
2022/12/30 09:14:32;;;;;;;18.10;5.40;;;;;;;4.18;100.00;100563.91;7395139;19;20411;-55
2022/12/30 09:17:02;;;;;;;27.47;8.40;;;;;;;4.34;100.00;100559.78;7391692;19;20446;-54
2022/12/30 09:19:32;;;;;;;49.03;14.80;;;;;;;4.36;100.00;100576.06;7394573;19;20402;-53
2022/12/30 09:22:01;;;;;;;34.53;9.13;;;;;;;4.38;100.00;100565.97;7390052;19;20434;-51
2022/12/30 09:24:30;;;;;;;38.57;6.33;;;;;;;4.38;100.00;100571.97;7394018;19;20947;-57
2022/12/30 09:27:00;;;;;;;19.07;5.50;;;;;;;4.42;100.00;100583.25;7391614;19;20415;-56
2022/12/30 09:29:29;;;;;;;4.27;2.30;;;;;;;4.43;100.00;100580.81;7394454;19;20396;-53
2022/12/30 09:32:01;;;;;;;22.40;3.73;;;;;;;4.51;100.00;100588.06;7390593;19;20417;-55
2022/12/30 09:34:31;;;;;;;34.53;9.43;;;;;;;4.55;100.00;100590.03;7394590;19;20404;-54
2022/12/30 09:37:00;;;;;;;16.10;2.60;;;;;;;4.52;100.00;100590.72;7391199;19;20407;-53
2022/12/30 09:39:33;;;;;;;15.13;3.23;;;;;;;4.62;100.00;100592.19;7393885;19;20408;-56
2022/12/30 09:44:59;;;;;;;12.63;3.73;;;;;;;4.69;100.00;100603.69;7390348;19;20380;-57
2022/12/30 09:47:33;;;;;;;29.40;8.00;;;;;;;4.73;100.00;100601.41;7388440;19;20423;-55
2022/12/30 09:50:05;;;;;;;16.10;6.57;;;;;;;4.77;100.00;100606.72;7391639;19;20395;-58
2022/12/30 09:52:38;;;;;;;13.17;3.10;;;;;;;4.85;100.00;100606.44;7387920;19;20395;-53
2022/12/30 09:55:13;;;;;;;9.77;2.30;;;;;;;4.86;100.00;100602.19;7391988;19;20933;-56
2022/12/30 09:57:43;;;;;;;16.13;3.90;;;;;;;4.88;100.00;100605.72;7388877;19;20816;-53
2022/12/30 10:00:17;;;;;;;22.33;3.30;;;;;;;4.97;100.00;100608.84;7391829;19;20767;-57
2022/12/30 10:02:58;;;;;;;10.13;2.90;;;;;;;4.99;100.00;100604.69;7388304;19;20761;-51
2022/12/30 10:05:37;;;;;;;8.83;2.80;;;;;;;5.04;100.00;100601.56;7392396;19;20806;-52
2022/12/30 10:08:14;;;;;;;21.20;3.33;;;;;;;5.11;100.00;100608.81;7387485;19;20429;-55
2022/12/30 10:10:48;;;;;;;15.73;3.67;;;;;;;5.14;100.00;100606.47;7391020;19;20399;-55
2022/12/30 10:13:21;;;;;;;11.50;2.80;;;;;;;5.17;100.00;100603.22;7389261;19;20419;-51
2022/12/30 10:15:54;;;;;;;11.83;3.10;;;;;;;5.21;100.00;100608.59;7391683;19;20384;-53
2022/12/30 10:18:48;;;;;;;14.63;3.20;;;;;;;5.22;100.00;100607.81;7388869;19;20414;-52
2022/12/30 10:21:29;;;;;;;11.20;2.97;;;;;;;5.24;100.00;100601.09;7390759;19;20438;-54
2022/12/30 10:24:10;;;;;;;10.93;2.50;;;;;;;5.30;100.00;100599.69;7387635;19;20427;-52
2022/12/30 10:26:44;;;;;;;22.43;4.50;;;;;;;5.33;100.00;100589.66;7388645;19;20384;-55
2022/12/30 10:29:17;;;;;;;13.93;2.47;;;;;;;5.34;100.00;100596.56;7390040;19;20409;-57
2022/12/30 10:31:48;;;;;;;11.87;3.57;;;;;;;5.41;100.00;100598.69;7387611;19;20444;-57
2022/12/30 10:34:22;;;;;;;15.30;2.30;;;;;;;5.42;100.00;100603.00;7390161;19;20402;-54
2022/12/30 10:36:57;;;;;;;12.73;3.30;;;;;;;5.52;100.00;100600.22;7388619;19;20396;-53
2022/12/30 10:39:30;;;;;;;8.70;2.60;;;;;;;5.47;100.00;100599.06;7388596;19;20403;-56
2022/12/30 10:42:11;;;;;;;13.13;2.43;;;;;;;5.50;100.00;100599.22;7386218;19;20906;-54
2022/12/30 10:44:47;;;;;;;10.40;1.90;;;;;;;5.63;100.00;100589.72;7391127;19;21207;-54
2022/12/30 10:47:31;;;;;;;6.00;1.33;;;;;;;5.60;100.00;100584.44;7387713;19;20414;-54
2022/12/30 10:50:21;;;;;;;4.43;1.37;;;;;;;5.66;100.00;100577.97;7389317;19;20403;-51
2022/12/30 10:52:51;;;;;;;15.83;3.37;;;;;;;5.68;100.00;100583.19;7387704;19;20412;-51
2022/12/30 10:55:30;;;;;;;13.57;2.20;;;;;;;5.71;100.00;100582.50;7393743;19;20385;-55
2022/12/30 10:58:02;;;;;;;15.20;2.60;;;;;;;5.70;100.00;100579.06;7387123;19;20465;-52
2022/12/30 11:00:39;;;;;;;4.53;2.40;;;;;;;5.71;100.00;100578.28;7390070;19;20504;-52
2022/12/30 11:03:18;;;;;;;3.97;1.60;;;;;;;5.73;100.00;100575.78;7387611;19;20423;-53
2022/12/30 11:05:53;;;;;;;12.80;3.43;;;;;;;5.80;100.00;100568.53;7388661;19;20367;-54
2022/12/30 11:08:24;;;;;;;17.53;2.70;;;;;;;5.87;100.00;100569.81;7386661;19;21039;-54
2022/12/30 11:11:01;;;;;;;9.30;2.20;;;;;;;5.85;100.00;100565.38;7389674;19;20933;-56
2022/12/30 11:16:13;;;;;;;12.83;2.60;;;;;;;5.87;100.00;100568.91;7390428;19;20407;-50
2022/12/30 11:18:47;;;;;;;11.40;2.40;;;;;;;5.86;100.00;100556.91;7386576;19;20451;-51
2022/12/30 11:21:25;;;;;;;13.10;3.60;;;;;;;5.87;100.00;100553.53;7389548;19;20467;-54
2022/12/30 11:23:56;;;;;;;16.73;2.77;;;;;;;5.89;100.00;100544.28;7387034;19;20763;-56
2022/12/30 11:26:27;;;;;;;9.20;2.10;;;;;;;5.96;100.00;100548.97;7390242;19;20381;-52
2022/12/30 11:28:58;;;;;;;8.70;1.90;;;;;;;5.90;100.00;100535.81;7386180;19;20964;-57
2022/12/30 11:31:35;;;;;;;14.03;1.93;;;;;;;5.93;100.00;100528.28;7389024;19;20450;-57
2022/12/30 11:34:05;;;;;;;9.63;2.23;;;;;;;5.91;100.00;100530.75;7388221;19;20436;-54
2022/12/30 11:36:38;;;;;;;13.30;2.73;;;;;;;5.89;100.00;100528.94;7389988;19;20394;-57
2022/12/30 11:39:30;;;;;;;12.83;3.07;;;;;;;5.99;100.00;100515.81;7385137;19;20443;-54
2022/12/30 11:42:01;;;;;;;14.83;2.80;;;;;;;6.02;100.00;100518.59;7385443;19;20407;-52
2022/12/30 11:44:32;;;;;;;4.20;1.33;;;;;;;6.02;100.00;100518.59;7389457;19;20817;-54
2022/12/30 11:47:03;;;;;;;7.43;1.50;;;;;;;6.03;100.00;100530.63;7392038;19;20425;-52
2022/12/30 11:49:38;;;;;;;13.60;2.03;;;;;;;6.01;100.00;100509.09;7396527;19;20388;-53
2022/12/30 11:52:21;;;;;;;9.30;1.67;;;;;;;6.04;100.00;100510.97;7392248;19;20968;-56
2022/12/30 11:54:54;;;;;;;4.03;1.30;;;;;;;5.98;100.00;100501.25;7396855;19;20392;-50
2022/12/30 11:57:30;;;;;;;11.93;2.07;;;;;;;5.97;100.00;100499.50;7393793;19;21047;-55
2022/12/30 12:00:01;;;;;;;7.90;1.90;;;;;;;6.00;100.00;100499.66;7393017;19;20410;-56
2022/12/30 12:02:34;;;;;;;6.00;2.47;;;;;;;6.00;100.00;100486.84;7391362;19;20416;-50
2022/12/30 12:05:05;;;;;;;11.63;1.50;;;;;;;5.99;100.00;100481.66;7396241;19;20400;-51
2022/12/30 12:07:40;;;;;;;4.80;1.40;;;;;;;6.00;100.00;100479.16;7392454;19;20471;-52
2022/12/30 12:10:19;;;;;;;8.87;2.77;;;;;;;5.99;100.00;100471.41;7396254;19;20387;-53
2022/12/30 12:12:52;;;;;;;14.60;2.37;;;;;;;5.94;100.00;100460.91;7391704;19;20429;-54
2022/12/30 12:15:32;;;;;;;14.40;2.97;;;;;;;6.01;100.00;100455.31;7394628;19;20423;-49
2022/12/30 12:18:06;;;;;;;4.40;1.80;;;;;;;5.98;100.00;100450.03;7390642;19;20467;-53
2022/12/30 12:20:39;;;;;;;11.60;2.00;;;;;;;6.02;100.00;100444.34;7397244;19;20411;-54
2022/12/30 12:23:17;;;;;;;7.33;2.10;;;;;;;6.02;100.00;100441.78;7394465;19;20395;-56
2022/12/30 12:25:59;;;;;;;14.33;2.77;;;;;;;6.02;100.00;100445.97;7396847;19;21310;-54
2022/12/30 12:28:32;;;;;;;12.43;2.50;;;;;;;6.04;100.00;100439.28;7394280;19;20432;-54
2022/12/30 12:31:11;;;;;;;11.20;2.10;;;;;;;6.05;100.00;100436.81;7394743;19;20426;-54
2022/12/30 12:33:43;;;;;;;9.80;1.70;;;;;;;6.10;100.00;100429.34;7395982;19;20462;-54
2022/12/30 12:36:22;;;;;;;8.63;1.90;;;;;;;6.12;100.00;100435.47;7400306;19;20403;-50
2022/12/30 12:39:03;;;;;;;7.83;2.20;;;;;;;6.14;100.00;100441.56;7395437;19;20486;-53